Time;durP1;ratioP1;P1;durP2;ratioP2;P2;SDS_P1;SDS_P2;PMS_P1;PMS_P2;Temp;Humidity;BMP_temperature;BMP_pressure;BME280_temperature;BME280_humidity;BME280_pressure;Samples;Min_cycle;Max_cycle;Signal;HPM_P1;HPM_P2
2023/05/23 00:00:18;;;;;;;29.63;19.37;;;19.20;91.10;;;;;;5106693;28;20212;-69
2023/05/23 00:02:45;;;;;;;19.67;15.60;;;19.20;91.30;;;;;;5108314;28;20581;-69
2023/05/23 00:05:14;;;;;;;18.73;16.73;;;19.20;91.40;;;;;;5105428;28;20199;-69
2023/05/23 00:07:41;;;;;;;18.40;16.50;;;19.20;91.50;;;;;;5104359;28;20255;-69
2023/05/23 00:10:09;;;;;;;19.60;16.47;;;19.20;91.60;;;;;;5103315;28;20630;-69
2023/05/23 00:12:41;;;;;;;16.73;15.13;;;19.20;91.50;;;;;;5102093;28;20517;-69
2023/05/23 00:15:08;;;;;;;19.50;16.27;;;19.20;91.40;;;;;;5094499;28;20604;-69
2023/05/23 00:17:37;;;;;;;28.17;15.93;;;19.10;91.30;;;;;;5094672;28;20615;-69
2023/05/23 00:20:11;;;;;;;18.33;15.90;;;19.10;91.30;;;;;;5107847;28;20241;-69
2023/05/23 00:22:41;;;;;;;17.03;14.90;;;19.00;91.40;;;;;;5109987;28;20188;-69
2023/05/23 00:25:09;;;;;;;21.30;14.57;;;19.00;91.50;;;;;;5105624;28;20204;-68
2023/05/23 00:27:36;;;;;;;17.13;14.20;;;19.00;91.60;;;;;;5107629;28;20273;-69
2023/05/23 00:30:03;;;;;;;19.13;15.77;;;19.10;91.70;;;;;;5105718;28;20309;-69
2023/05/23 00:32:30;;;;;;;17.77;14.37;;;19.00;91.60;;;;;;5107570;28;20207;-69
2023/05/23 00:34:57;;;;;;;20.27;14.93;;;19.00;91.50;;;;;;5087916;28;20220;-69
2023/05/23 00:37:24;;;;;;;18.63;14.33;;;19.00;91.40;;;;;;5109081;28;20236;-69
2023/05/23 00:39:51;;;;;;;19.20;16.23;;;18.90;91.30;;;;;;5103201;28;20211;-69
2023/05/23 00:42:18;;;;;;;22.33;15.03;;;18.80;91.40;;;;;;5109137;28;20283;-70
2023/05/23 00:44:47;;;;;;;18.80;16.07;;;18.80;91.50;;;;;;5102649;28;20198;-69
2023/05/23 00:47:14;;;;;;;20.70;16.53;;;18.80;91.60;;;;;;5096687;28;20200;-69
2023/05/23 00:49:41;;;;;;;22.33;16.57;;;18.80;91.80;;;;;;5105648;28;20199;-69
2023/05/23 00:52:09;;;;;;;24.07;16.13;;;18.70;91.80;;;;;;5106808;28;20235;-69
2023/05/23 00:54:37;;;;;;;18.87;16.00;;;18.70;91.80;;;;;;5091048;28;20665;-68
2023/05/23 00:57:05;;;;;;;21.07;16.80;;;18.70;91.90;;;;;;5107775;28;20631;-69
2023/05/23 00:59:34;;;;;;;19.47;15.47;;;18.60;92.00;;;;;;5104701;28;20282;-69
2023/05/23 01:02:02;;;;;;;19.63;16.20;;;18.60;92.10;;;;;;5106423;28;20206;-69
2023/05/23 01:04:32;;;;;;;20.13;16.00;;;18.60;92.00;;;;;;5086925;28;20298;-69
2023/05/23 01:07:00;;;;;;;22.23;17.03;;;18.50;92.20;;;;;;5093965;28;20204;-69
2023/05/23 01:09:28;;;;;;;21.63;17.03;;;18.50;91.90;;;;;;5102146;28;20210;-69
2023/05/23 01:12:33;;;;;;;24.07;17.20;;;18.50;91.90;;;;;;5090229;28;20253;-68
2023/05/23 01:15:18;;;;;;;18.33;16.43;;;18.40;92.00;;;;;;5110536;28;20207;-68
2023/05/23 01:17:59;;;;;;;28.77;17.57;;;18.40;92.00;;;;;;5095787;28;20224;-68
2023/05/23 01:20:55;;;;;;;18.97;16.27;;;18.40;92.10;;;;;;5107455;28;20196;-68
2023/05/23 01:23:22;;;;;;;19.33;16.00;;;18.40;92.00;;;;;;5101228;28;20555;-69
2023/05/23 01:26:26;;;;;;;19.83;15.40;;;18.40;91.90;;;;;;5090428;28;20197;-69
2023/05/23 01:29:09;;;;;;;18.50;14.60;;;18.40;91.90;;;;;;5108021;28;20544;-69
2023/05/23 01:31:42;;;;;;;18.10;15.07;;;18.30;92.00;;;;;;5106239;28;20203;-69
2023/05/23 01:34:11;;;;;;;19.40;15.33;;;18.30;92.00;;;;;;5103856;28;20218;-68
2023/05/23 01:36:44;;;;;;;19.90;15.43;;;18.30;92.00;;;;;;5091620;28;20236;-68
2023/05/23 01:39:11;;;;;;;19.40;14.57;;;18.30;92.10;;;;;;5106547;28;20214;-69
2023/05/23 01:41:39;;;;;;;21.10;15.30;;;18.30;92.10;;;;;;5094836;28;20725;-69
2023/05/23 01:44:06;;;;;;;21.60;15.87;;;18.30;91.90;;;;;;5102511;28;20246;-68
2023/05/23 01:46:38;;;;;;;19.43;15.57;;;18.20;91.80;;;;;;5085332;28;20532;-69
2023/05/23 01:49:08;;;;;;;22.17;14.87;;;18.10;91.90;;;;;;5085074;28;20653;-68
2023/05/23 01:51:35;;;;;;;27.40;14.83;;;18.00;92.10;;;;;;5106528;28;20250;-69
2023/05/23 01:54:03;;;;;;;25.77;16.10;;;18.00;92.30;;;;;;5101283;28;20677;-68
2023/05/23 01:56:31;;;;;;;17.17;15.03;;;18.00;92.20;;;;;;5103123;28;20212;-69
2023/05/23 01:59:00;;;;;;;21.80;15.40;;;18.00;92.20;;;;;;5090920;28;20204;-69
2023/05/23 02:01:28;;;;;;;18.07;15.07;;;17.90;92.30;;;;;;5083572;28;20265;-68
2023/05/23 02:03:57;;;;;;;17.30;15.43;;;17.90;92.40;;;;;;5086919;28;20197;-68
2023/05/23 02:06:24;;;;;;;19.43;15.40;;;18.00;92.50;;;;;;5105431;28;20218;-69
2023/05/23 02:08:51;;;;;;;15.03;13.47;;;17.90;92.50;;;;;;5093725;28;20212;-69
2023/05/23 02:11:18;;;;;;;17.00;13.63;;;17.90;92.50;;;;;;5104312;28;20201;-68
2023/05/23 02:13:45;;;;;;;18.80;14.83;;;17.90;92.30;;;;;;5101710;28;20199;-69
2023/05/23 02:16:12;;;;;;;17.87;15.00;;;17.90;92.30;;;;;;5107374;28;20196;-68
2023/05/23 02:18:39;;;;;;;19.07;14.80;;;17.90;92.20;;;;;;5092405;28;20272;-69
2023/05/23 02:21:07;;;;;;;17.30;14.90;;;17.90;92.20;;;;;;5100892;28;20311;-69
2023/05/23 02:23:36;;;;;;;20.43;15.10;;;17.80;92.30;;;;;;5089723;28;20203;-69
2023/05/23 02:26:03;;;;;;;20.00;15.83;;;17.80;92.40;;;;;;5084058;28;20208;-68
2023/05/23 02:28:30;;;;;;;19.47;14.37;;;17.80;92.50;;;;;;5101220;28;20211;-68
2023/05/23 02:30:57;;;;;;;16.83;14.30;;;17.80;92.50;;;;;;5103517;28;20199;-70
2023/05/23 02:33:24;;;;;;;17.77;14.80;;;17.80;92.50;;;;;;5105057;28;20654;-69
2023/05/23 02:40:06;;;;;;;18.50;13.97;;;17.80;92.60;;;;;;5082900;28;20566;-69
2023/05/23 02:42:35;;;;;;;15.80;14.13;;;17.80;92.40;;;;;;5091297;28;20660;-68
2023/05/23 02:45:03;;;;;;;18.07;14.80;;;17.80;92.40;;;;;;5091472;28;20207;-68
2023/05/23 02:47:30;;;;;;;18.90;13.80;;;17.70;92.40;;;;;;5087399;28;20303;-69
2023/05/23 02:49:57;;;;;;;19.13;14.87;;;17.70;92.50;;;;;;5076128;28;20249;-69
2023/05/23 02:52:24;;;;;;;16.00;14.30;;;17.60;92.50;;;;;;5094357;28;20645;-68
2023/05/23 02:54:52;;;;;;;17.60;15.10;;;17.60;92.60;;;;;;5084552;28;20214;-69
2023/05/23 02:57:19;;;;;;;15.30;13.67;;;17.70;92.60;;;;;;5088686;28;20314;-69
2023/05/23 02:59:46;;;;;;;19.77;14.77;;;17.60;92.60;;;;;;5102250;28;20657;-68
2023/05/23 03:02:14;;;;;;;18.13;14.37;;;17.60;92.60;;;;;;5094240;28;20568;-68
2023/05/23 03:04:41;;;;;;;17.87;14.20;;;17.60;92.60;;;;;;5076904;28;20684;-69
2023/05/23 03:07:10;;;;;;;17.93;14.97;;;17.60;92.50;;;;;;5088072;28;20213;-69
2023/05/23 03:09:53;;;;;;;20.43;14.73;;;17.60;92.60;;;;;;5095293;28;20266;-68
2023/05/23 03:12:20;;;;;;;24.47;15.40;;;17.50;92.60;;;;;;5091063;28;20306;-68
2023/05/23 03:14:47;;;;;;;20.60;14.43;;;17.50;92.60;;;;;;5103853;28;20613;-68
2023/05/23 03:17:14;;;;;;;15.27;13.53;;;17.50;92.70;;;;;;5089137;28;20316;-68
2023/05/23 03:19:41;;;;;;;19.67;14.60;;;17.50;92.80;;;;;;5091821;28;20207;-69
2023/05/23 03:22:08;;;;;;;18.40;15.13;;;17.40;93.10;;;;;;5091737;28;20201;-68
2023/05/23 03:24:35;;;;;;;17.63;14.00;;;17.40;92.80;;;;;;5094509;28;20194;-68
2023/05/23 03:27:03;;;;;;;18.13;14.73;;;17.40;92.90;;;;;;5087175;28;20664;-68
2023/05/23 03:29:30;;;;;;;19.70;14.53;;;17.40;92.90;;;;;;5104569;28;20198;-68
2023/05/23 03:31:57;;;;;;;26.97;14.87;;;17.30;92.90;;;;;;5087073;28;20434;-68
2023/05/23 03:34:25;;;;;;;19.27;15.77;;;17.30;93.00;;;;;;5103788;28;20216;-68
2023/05/23 03:36:52;;;;;;;20.07;15.30;;;17.30;93.00;;;;;;5095656;28;20203;-68
2023/05/23 03:39:19;;;;;;;19.33;15.70;;;17.30;93.10;;;;;;5089275;28;20218;-68
2023/05/23 03:41:46;;;;;;;21.10;15.87;;;17.30;93.10;;;;;;5091455;28;20239;-69
2023/05/23 03:44:15;;;;;;;21.13;16.30;;;17.30;93.00;;;;;;5086504;28;20681;-68
2023/05/23 03:46:42;;;;;;;20.90;16.27;;;17.30;93.00;;;;;;5088561;28;20244;-69
2023/05/23 03:49:09;;;;;;;17.83;15.20;;;17.30;93.20;;;;;;5095575;28;20189;-69
2023/05/23 03:51:36;;;;;;;23.03;15.50;;;17.20;92.90;;;;;;5093294;28;20191;-68
2023/05/23 03:54:03;;;;;;;15.43;13.73;;;17.30;92.90;;;;;;5092849;28;20228;-69
2023/05/23 03:56:30;;;;;;;25.23;15.70;;;17.20;92.90;;;;;;5105499;28;20197;-68
2023/05/23 03:58:57;;;;;;;19.63;15.63;;;17.20;93.00;;;;;;5106730;28;20229;-68
2023/05/23 04:01:25;;;;;;;23.63;15.30;;;17.20;93.00;;;;;;5089547;28;20193;-69
2023/05/23 04:03:52;;;;;;;21.67;16.77;;;17.10;93.00;;;;;;5094658;28;20316;-68
2023/05/23 04:06:21;;;;;;;21.93;16.23;;;17.10;93.00;;;;;;5093264;28;20198;-68
2023/05/23 04:08:49;;;;;;;22.77;15.87;;;17.10;93.10;;;;;;5095740;28;20262;-68
2023/05/23 04:11:16;;;;;;;22.00;15.50;;;17.00;93.20;;;;;;5106006;28;20277;-68
2023/05/23 04:13:45;;;;;;;18.63;16.47;;;17.10;93.40;;;;;;5088480;28;20212;-69
2023/05/23 04:16:12;;;;;;;18.00;16.20;;;17.10;93.40;;;;;;5091209;28;20283;-68
2023/05/23 04:18:40;;;;;;;19.27;16.77;;;17.10;93.40;;;;;;5089930;28;20214;-68
2023/05/23 04:21:07;;;;;;;18.27;16.23;;;17.20;93.50;;;;;;5104266;28;20197;-68
2023/05/23 04:23:39;;;;;;;26.13;17.57;;;17.20;93.50;;;;;;5095450;28;20202;-69
2023/05/23 04:26:06;;;;;;;21.30;17.63;;;17.20;93.50;;;;;;5103031;28;20281;-69
2023/05/23 04:28:38;;;;;;;21.13;18.23;;;17.30;93.60;;;;;;5092907;28;20189;-69
2023/05/23 04:31:07;;;;;;;24.20;19.27;;;17.40;93.60;;;;;;5088883;28;20537;-68
2023/05/23 04:33:35;;;;;;;21.40;18.13;;;17.40;93.60;;;;;;5093853;28;20281;-69
2023/05/23 04:36:03;;;;;;;23.63;18.80;;;17.50;93.60;;;;;;5101989;28;20206;-68
2023/05/23 04:38:32;;;;;;;19.60;16.83;;;17.60;93.60;;;;;;5087147;28;20698;-69
2023/05/23 04:40:59;;;;;;;21.37;16.63;;;17.70;93.60;;;;;;5094437;28;20238;-69
2023/05/23 04:43:44;;;;;;;22.10;17.87;;;17.70;93.40;;;;;;5094398;28;20215;-68
2023/05/23 04:46:25;;;;;;;20.00;18.00;;;17.80;93.30;;;;;;5090864;28;20267;-68
2023/05/23 04:49:11;;;;;;;20.93;17.83;;;17.90;93.30;;;;;;5104603;28;20601;-69
2023/05/23 04:51:39;;;;;;;23.10;18.43;;;17.90;93.30;;;;;;5086685;28;20220;-68
2023/05/23 04:54:28;;;;;;;20.00;17.83;;;18.00;93.40;;;;;;5101689;28;20203;-69
2023/05/23 04:56:58;;;;;;;18.60;16.73;;;18.10;93.30;;;;;;5098737;28;20746;-69
2023/05/23 04:59:26;;;;;;;17.63;15.73;;;18.20;93.30;;;;;;5086285;28;20206;-69
2023/05/23 05:01:53;;;;;;;17.87;15.57;;;18.20;93.20;;;;;;5104211;28;20200;-69
2023/05/23 05:04:21;;;;;;;18.40;16.50;;;18.30;93.10;;;;;;5083105;28;20189;-68
2023/05/23 05:06:51;;;;;;;19.80;16.13;;;18.30;93.00;;;;;;5105712;28;20192;-68
2023/05/23 05:09:18;;;;;;;19.50;15.17;;;18.40;93.10;;;;;;5092374;28;20226;-68
2023/05/23 05:11:45;;;;;;;21.03;14.83;;;18.50;93.10;;;;;;5087849;28;20549;-69
2023/05/23 05:14:13;;;;;;;18.63;16.53;;;18.60;93.10;;;;;;5080469;28;20275;-68
2023/05/23 05:16:41;;;;;;;17.43;15.63;;;18.70;93.00;;;;;;5090135;28;20295;-68
2023/05/23 05:19:09;;;;;;;23.37;15.67;;;18.80;92.90;;;;;;5093165;28;20639;-68
2023/05/23 05:21:36;;;;;;;18.77;16.90;;;18.90;92.90;;;;;;5103489;28;20198;-68
2023/05/23 05:24:04;;;;;;;18.93;16.23;;;18.90;92.80;;;;;;5090585;28;20285;-68
2023/05/23 05:26:31;;;;;;;21.77;16.60;;;19.00;92.80;;;;;;5101440;28;20207;-69
2023/05/23 05:28:58;;;;;;;18.27;16.37;;;19.20;92.70;;;;;;5088945;28;20546;-68
2023/05/23 05:31:26;;;;;;;21.73;16.30;;;19.20;92.60;;;;;;5083968;28;20264;-69
2023/05/23 05:33:53;;;;;;;20.97;18.00;;;19.30;92.60;;;;;;5094165;28;20294;-68
2023/05/23 05:36:20;;;;;;;20.00;15.93;;;19.30;92.40;;;;;;5092327;28;20211;-69
2023/05/23 05:38:49;;;;;;;21.93;16.97;;;19.40;92.10;;;;;;5093883;28;20672;-68
2023/05/23 05:41:19;;;;;;;17.37;15.57;;;19.50;92.00;;;;;;5093353;28;20231;-68
2023/05/23 05:43:49;;;;;;;22.23;17.00;;;19.60;92.10;;;;;;5089525;28;20193;-68
2023/05/23 05:46:17;;;;;;;21.83;19.20;;;19.70;92.10;;;;;;5091139;28;20203;-70
2023/05/23 05:48:45;;;;;;;21.87;19.53;;;19.80;92.10;;;;;;5092252;28;20196;-68
2023/05/23 05:51:12;;;;;;;25.93;20.40;;;20.00;92.00;;;;;;5091715;28;20228;-68
2023/05/23 05:53:40;;;;;;;25.53;20.63;;;20.10;92.00;;;;;;5092094;28;20209;-68
2023/05/23 05:56:08;;;;;;;22.27;19.60;;;20.20;92.00;;;;;;5106678;28;20204;-68
2023/05/23 05:58:35;;;;;;;23.17;20.70;;;20.40;91.90;;;;;;5102300;28;20259;-68
2023/05/23 06:01:06;;;;;;;24.60;20.17;;;20.50;91.80;;;;;;5089704;28;20193;-68
2023/05/23 06:03:33;;;;;;;22.33;19.73;;;20.70;91.80;;;;;;5106316;28;20202;-68
2023/05/23 06:06:01;;;;;;;24.53;20.50;;;20.80;91.70;;;;;;5085608;28;20601;-68
2023/05/23 06:08:28;;;;;;;24.50;20.63;;;21.00;91.60;;;;;;5086618;28;20295;-68
2023/05/23 06:10:55;;;;;;;26.50;21.53;;;21.20;91.20;;;;;;5091418;28;20203;-68
2023/05/23 06:13:24;;;;;;;29.63;22.40;;;21.30;90.80;;;;;;5082777;28;20239;-68
2023/05/23 06:15:52;;;;;;;23.50;21.10;;;21.50;90.50;;;;;;5108571;28;20192;-68
2023/05/23 06:18:22;;;;;;;24.83;21.17;;;21.60;90.40;;;;;;5092120;28;20308;-68
2023/05/23 06:20:50;;;;;;;24.33;20.63;;;21.70;90.30;;;;;;5090366;28;20235;-68
2023/05/23 06:23:19;;;;;;;24.83;20.80;;;21.80;90.20;;;;;;5094002;28;20250;-68
2023/05/23 06:25:47;;;;;;;25.80;21.20;;;21.90;90.00;;;;;;5085452;28;20211;-68
2023/05/23 06:28:14;;;;;;;22.57;20.23;;;22.10;89.90;;;;;;5102206;28;20200;-69
2023/05/23 06:30:41;;;;;;;23.03;20.60;;;22.20;89.60;;;;;;5094250;28;20204;-68
2023/05/23 06:33:08;;;;;;;23.00;20.60;;;22.30;89.20;;;;;;5104539;28;20287;-68
2023/05/23 06:35:35;;;;;;;22.47;20.17;;;22.40;89.00;;;;;;5103406;28;20235;-68
2023/05/23 06:38:02;;;;;;;26.43;20.87;;;22.50;88.90;;;;;;5102840;28;20217;-68
2023/05/23 06:40:29;;;;;;;22.10;19.83;;;22.60;88.20;;;;;;5099107;28;20697;-68
2023/05/23 06:42:57;;;;;;;22.33;19.93;;;22.70;88.30;;;;;;5092396;28;20694;-69
2023/05/23 06:45:37;;;;;;;19.47;17.43;;;22.80;88.20;;;;;;5090022;28;20209;-68
2023/05/23 06:48:04;;;;;;;20.93;18.20;;;22.90;87.60;;;;;;5092186;28;20213;-68
2023/05/23 06:50:33;;;;;;;19.90;17.33;;;23.00;86.80;;;;;;5090080;28;20300;-68
2023/05/23 06:53:02;;;;;;;22.03;19.03;;;23.20;86.50;;;;;;5093252;28;20206;-68
2023/05/23 06:55:29;;;;;;;20.97;18.40;;;23.30;85.30;;;;;;5089946;28;20309;-69
2023/05/23 06:57:56;;;;;;;18.00;16.27;;;23.30;84.80;;;;;;5092233;28;20268;-68
2023/05/23 07:00:24;;;;;;;18.60;16.70;;;23.40;85.10;;;;;;5083629;28;20193;-68
2023/05/23 07:03:02;;;;;;;19.50;16.23;;;23.50;85.00;;;;;;5101126;28;20197;-69
2023/05/23 07:05:32;;;;;;;15.83;14.37;;;23.70;84.90;;;;;;5086810;28;20316;-69
2023/05/23 07:07:59;;;;;;;18.17;15.40;;;23.80;84.20;;;;;;5100316;28;20211;-68
2023/05/23 07:10:26;;;;;;;19.93;16.70;;;24.00;83.60;;;;;;5092844;28;20295;-68
2023/05/23 07:13:00;;;;;;;19.80;16.53;;;24.10;82.60;;;;;;5083917;28;20226;-69
2023/05/23 07:15:28;;;;;;;19.00;16.83;;;24.20;81.50;;;;;;5091808;28;20865;-68
2023/05/23 07:18:07;;;;;;;19.20;17.20;;;24.40;81.60;;;;;;5103703;28;20213;-68
2023/05/23 07:20:35;;;;;;;19.33;17.40;;;24.50;81.10;;;;;;5097249;28;20711;-68
2023/05/23 07:23:10;;;;;;;19.50;16.83;;;24.60;80.80;;;;;;5091279;28;20196;-68
2023/05/23 07:25:41;;;;;;;21.63;19.33;;;24.70;80.40;;;;;;5092393;28;20235;-68
2023/05/23 07:28:28;;;;;;;21.90;18.87;;;24.80;80.70;;;;;;5096555;28;20200;-68
2023/05/23 07:30:58;;;;;;;21.87;19.47;;;25.00;80.30;;;;;;5095149;28;20669;-68
2023/05/23 07:33:26;;;;;;;21.40;19.20;;;25.00;79.60;;;;;;5093946;28;20279;-68
2023/05/23 07:35:59;;;;;;;25.77;20.47;;;25.10;78.90;;;;;;5090992;28;20202;-68
2023/05/23 07:38:26;;;;;;;23.67;19.53;;;25.20;78.90;;;;;;5094848;28;20210;-68
2023/05/23 07:40:53;;;;;;;22.20;19.87;;;25.30;79.30;;;;;;5101176;28;20236;-68
2023/05/23 07:43:33;;;;;;;21.33;19.13;;;25.40;78.40;;;;;;5109288;28;20660;-68
2023/05/23 07:46:00;;;;;;;22.00;18.13;;;25.50;78.60;;;;;;5089201;28;20238;-68
2023/05/23 07:48:28;;;;;;;21.53;19.07;;;25.60;78.80;;;;;;5093778;28;20286;-68
2023/05/23 07:50:55;;;;;;;22.03;19.73;;;25.70;78.90;;;;;;5090914;28;20204;-68
2023/05/23 07:53:22;;;;;;;22.90;20.47;;;25.90;78.30;;;;;;5092272;28;20208;-68
2023/05/23 07:55:49;;;;;;;20.57;18.40;;;26.10;76.90;;;;;;5092807;28;20196;-68
2023/05/23 07:58:16;;;;;;;22.80;20.57;;;26.20;76.90;;;;;;5091774;28;20274;-68
2023/05/23 08:00:44;;;;;;;21.70;19.37;;;26.30;77.10;;;;;;5088840;28;20631;-69
2023/05/23 08:03:27;;;;;;;20.77;18.77;;;26.50;76.90;;;;;;5094713;28;20205;-68
2023/05/23 08:06:03;;;;;;;19.97;17.03;;;26.60;76.00;;;;;;5093691;28;20200;-68
2023/05/23 08:08:31;;;;;;;26.07;18.63;;;26.70;75.50;;;;;;5095750;28;20224;-68
2023/05/23 08:10:58;;;;;;;19.17;17.27;;;26.90;75.30;;;;;;5109313;28;20283;-68
2023/05/23 08:13:31;;;;;;;19.47;16.00;;;27.00;74.70;;;;;;5085976;28;20216;-68
2023/05/23 08:16:18;;;;;;;33.90;17.93;;;27.10;74.30;;;;;;5103936;28;20213;-68
2023/05/23 08:18:45;;;;;;;18.37;15.93;;;27.20;74.10;;;;;;5095832;28;20231;-68
2023/05/23 08:21:12;;;;;;;19.20;17.30;;;27.20;74.10;;;;;;5096010;28;20196;-69
2023/05/23 08:23:39;;;;;;;18.67;16.67;;;27.30;74.10;;;;;;5091726;28;20199;-68
2023/05/23 08:26:06;;;;;;;19.70;17.57;;;27.30;73.80;;;;;;5101706;28;20193;-68
2023/05/23 08:28:34;;;;;;;19.53;17.70;;;27.40;72.90;;;;;;5088468;28;20600;-68
2023/05/23 08:31:03;;;;;;;17.90;16.00;;;27.40;72.50;;;;;;5107388;28;20650;-69
2023/05/23 08:33:30;;;;;;;19.30;16.60;;;27.40;72.90;;;;;;5096355;28;20201;-68
2023/05/23 08:35:58;;;;;;;20.17;18.23;;;27.40;73.40;;;;;;5090730;28;20604;-68
2023/05/23 08:38:26;;;;;;;20.07;18.00;;;27.50;72.70;;;;;;5105606;28;20251;-68
2023/05/23 08:41:08;;;;;;;21.00;18.90;;;27.60;71.90;;;;;;5096184;28;20231;-68
2023/05/23 08:43:35;;;;;;;22.03;19.67;;;27.60;72.00;;;;;;5094446;28;20667;-68
2023/05/23 08:46:03;;;;;;;19.23;17.33;;;27.70;72.20;;;;;;5089732;28;20212;-68
2023/05/23 08:48:33;;;;;;;19.73;17.63;;;27.70;72.80;;;;;;5094257;28;20548;-68
2023/05/23 08:51:02;;;;;;;20.37;18.23;;;27.70;73.20;;;;;;5090574;28;20239;-69
2023/05/23 08:53:31;;;;;;;24.30;18.37;;;27.80;72.60;;;;;;5091364;28;20208;-68
2023/05/23 08:56:03;;;;;;;23.83;19.17;;;28.00;72.00;;;;;;5092012;28;20234;-68
2023/05/23 08:58:41;;;;;;;26.13;18.80;;;28.20;71.80;;;;;;5101694;28;20239;-68
2023/05/23 09:01:10;;;;;;;18.70;16.70;;;28.30;71.40;;;;;;5096818;28;20200;-68
2023/05/23 09:03:38;;;;;;;18.07;16.17;;;28.40;71.00;;;;;;5092787;28;20277;-68
2023/05/23 09:06:11;;;;;;;18.63;16.77;;;28.50;71.00;;;;;;5076033;28;20197;-68
2023/05/23 09:08:41;;;;;;;17.63;15.83;;;28.70;70.10;;;;;;5088035;28;20292;-69
2023/05/23 09:11:11;;;;;;;18.83;16.83;;;28.70;69.80;;;;;;5095014;28;20201;-67
2023/05/23 09:13:39;;;;;;;19.00;17.10;;;28.80;69.60;;;;;;5082311;28;20545;-67
2023/05/23 09:16:11;;;;;;;18.47;16.57;;;28.80;67.90;;;;;;5092035;28;20257;-68
2023/05/23 09:19:02;;;;;;;18.80;16.73;;;28.80;68.50;;;;;;5099927;28;20290;-67
2023/05/23 09:21:30;;;;;;;18.20;16.17;;;28.80;68.60;;;;;;5087976;28;20231;-69
2023/05/23 09:24:07;;;;;;;20.93;15.83;;;28.80;68.60;;;;;;5088104;28;20201;-67
2023/05/23 09:26:36;;;;;;;17.80;15.83;;;28.70;67.70;;;;;;5093453;28;20379;-68
2023/05/23 09:29:06;;;;;;;16.50;14.40;;;28.70;68.30;;;;;;5101400;28;20198;-70
2023/05/23 09:31:34;;;;;;;16.13;14.70;;;28.60;69.50;;;;;;5107835;28;20196;-67
2023/05/23 09:34:02;;;;;;;17.80;16.13;;;28.70;68.90;;;;;;5092658;28;20201;-68
2023/05/23 09:36:32;;;;;;;14.67;12.87;;;28.70;67.30;;;;;;5095744;28;20212;-70
2023/05/23 09:39:04;;;;;;;15.20;13.63;;;28.70;68.60;;;;;;5089799;28;20225;-65
2023/05/23 09:41:34;;;;;;;17.37;15.53;;;28.80;68.00;;;;;;5067665;28;20271;-66
2023/05/23 09:44:08;;;;;;;17.37;15.03;;;28.90;67.80;;;;;;5090349;28;20202;-70
2023/05/23 09:46:37;;;;;;;15.07;12.80;;;28.90;66.60;;;;;;5084912;28;20208;-69
2023/05/23 09:49:17;;;;;;;18.13;14.27;;;28.90;67.00;;;;;;5077180;28;20229;-70
2023/05/23 09:51:57;;;;;;;17.10;15.10;;;29.00;67.30;;;;;;5086738;28;20296;-70
2023/05/23 09:54:24;;;;;;;16.33;14.57;;;29.10;66.40;;;;;;5070897;28;20201;-70
2023/05/23 09:56:54;;;;;;;15.50;14.07;;;29.20;66.20;;;;;;5079120;28;20217;-70
2023/05/23 09:59:25;;;;;;;16.53;14.83;;;29.20;67.50;;;;;;5080868;28;20648;-70
2023/05/23 10:01:56;;;;;;;19.90;15.57;;;29.20;68.00;;;;;;5080831;28;20197;-69
2023/05/23 10:04:24;;;;;;;14.77;13.23;;;29.10;67.00;;;;;;5082058;28;20620;-70
2023/05/23 10:07:00;;;;;;;15.83;14.23;;;29.10;67.00;;;;;;5081949;28;20197;-70
2023/05/23 10:09:31;;;;;;;17.93;12.83;;;29.00;66.90;;;;;;5078098;28;20235;-70
2023/05/23 10:12:43;;;;;;;15.00;13.40;;;29.10;66.90;;;;;;5070566;28;20267;-70
2023/05/23 10:15:14;;;;;;;14.73;11.90;;;29.30;67.60;;;;;;5066300;28;20208;-70
2023/05/23 10:18:16;;;;;;;16.63;14.10;;;29.50;66.90;;;;;;5080906;28;20193;-70
2023/05/23 10:20:48;;;;;;;14.80;12.43;;;29.70;65.20;;;;;;5081534;28;20288;-70
2023/05/23 10:23:16;;;;;;;13.27;12.03;;;29.80;65.20;;;;;;5082887;28;20209;-69
2023/05/23 10:25:43;;;;;;;14.30;11.80;;;30.00;65.10;;;;;;5080343;28;20593;-70
2023/05/23 10:28:12;;;;;;;14.97;13.50;;;30.10;64.20;;;;;;5084551;28;20204;-71
2023/05/23 10:30:39;;;;;;;14.70;12.87;;;30.30;63.80;;;;;;5076121;28;20689;-70
2023/05/23 10:33:08;;;;;;;13.53;11.03;;;30.30;62.40;;;;;;5073416;28;20584;-70
2023/05/23 10:36:09;;;;;;;12.13;11.03;;;30.30;62.70;;;;;;5080994;28;20262;-70
2023/05/23 10:38:50;;;;;;;12.73;10.30;;;30.30;62.40;;;;;;5052088;28;20230;-70
2023/05/23 10:41:22;;;;;;;11.50;10.37;;;30.40;61.90;;;;;;5091552;28;20316;-70
2023/05/23 10:44:11;;;;;;;11.13;10.10;;;30.50;62.40;;;;;;5102669;28;20214;-70
2023/05/23 10:46:56;;;;;;;15.23;10.53;;;30.60;62.40;;;;;;5098543;28;20200;-70
2023/05/23 10:49:40;;;;;;;12.60;11.43;;;30.70;61.30;;;;;;5104362;28;20209;-70
2023/05/23 10:52:09;;;;;;;9.23;7.07;;;30.70;62.50;;;;;;5082947;28;20212;-70
2023/05/23 10:54:51;;;;;;;8.47;7.77;;;30.60;61.30;;;;;;5100695;28;20524;-70
2023/05/23 10:57:20;;;;;;;7.70;6.80;;;30.60;60.00;;;;;;5099994;28;20598;-70
2023/05/23 10:59:51;;;;;;;7.50;6.80;;;30.50;58.70;;;;;;5103650;28;20217;-70
2023/05/23 11:02:24;;;;;;;9.00;8.10;;;30.50;59.00;;;;;;5106754;28;20195;-70
2023/05/23 11:05:21;;;;;;;8.40;7.07;;;30.60;59.40;;;;;;5098110;28;20197;-70
2023/05/23 11:08:13;;;;;;;11.63;8.40;;;30.70;60.60;;;;;;5107927;28;20192;-70
2023/05/23 11:11:00;;;;;;;10.10;6.97;;;30.80;60.10;;;;;;5091872;28;20201;-70
2023/05/23 11:13:52;;;;;;;7.70;6.00;;;30.90;58.70;;;;;;5106425;28;20201;-70
2023/05/23 11:16:30;;;;;;;8.93;5.80;;;31.00;55.20;;;;;;5099047;28;20231;-70
2023/05/23 11:19:19;;;;;;;8.50;6.00;;;30.90;56.30;;;;;;5103776;28;20209;-70
2023/05/23 11:21:54;;;;;;;5.90;5.30;;;31.00;55.90;;;;;;5099726;28;20224;-70
2023/05/23 11:24:22;;;;;;;8.50;6.27;;;31.10;54.90;;;;;;5105792;28;20226;-70
2023/05/23 11:27:02;;;;;;;6.90;6.20;;;31.20;54.30;;;;;;5105653;28;20270;-70
2023/05/23 11:29:30;;;;;;;8.23;6.87;;;31.40;56.20;;;;;;5101238;28;20201;-70
2023/05/23 11:31:57;;;;;;;16.43;7.73;;;31.50;56.10;;;;;;5105102;28;20198;-70
2023/05/23 11:34:25;;;;;;;7.53;5.97;;;31.60;56.00;;;;;;5101118;28;20596;-70
2023/05/23 11:36:55;;;;;;;9.47;6.23;;;31.60;55.40;;;;;;5109889;28;20201;-70
2023/05/23 11:39:22;;;;;;;8.03;6.27;;;31.70;53.70;;;;;;5101685;28;20713;-70
2023/05/23 11:41:58;;;;;;;11.30;6.33;;;31.70;53.20;;;;;;5100401;28;20228;-70
2023/05/23 11:44:26;;;;;;;8.70;6.57;;;31.70;54.10;;;;;;5105396;28;20258;-70
2023/05/23 11:47:04;;;;;;;6.70;5.63;;;31.80;53.80;;;;;;5105019;28;20189;-71
2023/05/23 11:49:36;;;;;;;7.10;6.50;;;31.80;53.30;;;;;;5107640;28;20215;-71
2023/05/23 11:52:05;;;;;;;7.67;6.23;;;31.90;52.00;;;;;;5104620;28;20557;-70
2023/05/23 11:54:32;;;;;;;8.23;6.30;;;31.80;53.10;;;;;;5104676;28;20201;-70
2023/05/23 11:57:01;;;;;;;8.13;7.43;;;31.70;54.20;;;;;;5104259;28;20208;-70
2023/05/23 11:59:28;;;;;;;10.03;7.23;;;31.60;53.80;;;;;;5105480;28;20565;-70
2023/05/23 12:01:55;;;;;;;6.87;6.00;;;31.50;53.40;;;;;;5105882;28;20218;-70
2023/05/23 12:04:25;;;;;;;6.47;5.93;;;31.40;52.50;;;;;;5104063;28;20697;-70
2023/05/23 12:06:52;;;;;;;7.50;5.80;;;31.40;52.40;;;;;;5103708;28;20216;-70
2023/05/23 12:09:19;;;;;;;6.80;5.77;;;31.40;54.30;;;;;;5083706;28;20201;-70
2023/05/23 12:11:48;;;;;;;6.57;4.93;;;31.50;54.20;;;;;;5104637;28;20508;-70
2023/05/23 12:14:17;;;;;;;5.30;4.63;;;31.50;51.60;;;;;;5104840;28;20209;-70
2023/05/23 12:16:47;;;;;;;5.47;4.70;;;31.60;49.30;;;;;;5105914;28;20200;-70
2023/05/23 12:19:16;;;;;;;5.60;5.00;;;31.60;48.50;;;;;;5102726;28;20221;-70
2023/05/23 12:21:48;;;;;;;7.47;5.17;;;31.70;48.90;;;;;;5103780;28;20185;-70
2023/05/23 12:24:22;;;;;;;7.43;4.67;;;31.70;49.50;;;;;;5101077;28;20577;-70
2023/05/23 12:26:50;;;;;;;7.43;4.77;;;31.80;49.30;;;;;;5103464;28;20648;-70
2023/05/23 12:29:36;;;;;;;6.37;5.10;;;31.90;48.30;;;;;;5103761;28;20239;-71
2023/05/23 12:32:06;;;;;;;5.67;5.10;;;32.00;49.00;;;;;;5105526;28;20276;-70
2023/05/23 12:34:33;;;;;;;6.73;5.03;;;32.00;50.00;;;;;;5103707;28;20197;-70
2023/05/23 12:37:02;;;;;;;9.67;5.57;;;32.10;50.40;;;;;;5102482;28;20232;-70
2023/05/23 12:39:35;;;;;;;8.80;5.60;;;32.10;50.70;;;;;;5106442;28;20237;-70
2023/05/23 12:42:11;;;;;;;9.17;5.20;;;32.00;47.80;;;;;;5098840;28;20233;-70
2023/05/23 12:44:42;;;;;;;7.50;4.70;;;31.90;47.70;;;;;;5104117;28;20205;-70
2023/05/23 12:47:12;;;;;;;5.60;5.10;;;31.90;48.10;;;;;;5103255;28;20197;-70
2023/05/23 12:49:39;;;;;;;7.50;4.60;;;31.80;48.50;;;;;;5102031;28;20205;-70
2023/05/23 12:52:06;;;;;;;7.53;4.90;;;31.80;48.90;;;;;;5104445;28;20544;-70